Aérodrome :
LOGIN :

S'inscrire | Disclaimer

   EN    FR    IT 

 










Légende :    VFR   VFR Marginal   IFR   IFR Intensif   IFR Très Intensif
Visi : 
Plafond : 
>= 8 km
>= 3000ft
5 à 8 km
1000 à 3000 ft
1500m à 5 km
500 à 1000 ft
800 à 1500m
200 à 500 ft
< 800m
< 200 ft
Symboles :   Orages  Brouillard  Fortes neiges  Fortes précipitations  Vent > 20 kt
SIGMETs :   Divers  Orages  Givrage  Turbulence  Onde Orograph.  Cendres Volcan.







- Altitude de l'aérodrome : 375 ft
- Code IATA : MST


EHBK - Maastricht Aachen

DERNIER METAR :
  • 190755Z AUTO VRB03KT 9999 NCD 20/13 Q1019 NOSIG

METARs EXPIRÉS :
  • 190725Z AUTO 28004KT 200V310 9999 NCD 19/13 Q1019 NOSIG
  • 190655Z AUTO 24005KT 190V300 9999 NSC 18/13 Q1019 NOSIG
  • 190625Z AUTO 21005KT 9999 NCD 17/13 Q1019 NOSIG
  • 190555Z AUTO 20005KT 9999 NCD 16/13 Q1018 NOSIG
  • 190525Z AUTO 20005KT 160V220 9999 NCD 15/12 Q1018 NOSIG
  • 190455Z AUTO 20004KT 9999 NCD 14/12 Q1018 NOSIG

TAF TAF EHBK
Valide du 19 à 06h jusqu'au 20 à 12h UTC


190447Z 1906/2012 27005KT CAVOK
Pas de NOTAMs connus pour ce terrain.



MET'MAP, la Météo Aéronautique d'un coup d'oeil ! - Copyright ORBIFLY Décembre 2007 - Disclaimer

ORBIFLY MET'MAP TEAM :

Programmation & Développement : Alexandra Zaïnal
Conception & Développement : Baudouin d'Aumeries
Co-Programmation & Développement : Marc-Olivier Méhu
Soutien technique & logistique : Manuel Goepfert

Contact : metmap@orbifly.com




SOURCES & CREDITS :

   NOAA